sensor_id;sensor_type;location;lat;lon;timestamp;P1;durP1;ratioP1;P2;durP2;ratioP2
7541;SDS011;3812;50.006;8.230;2022-08-21T00:01:42;5.03;;;2.50;;
7541;SDS011;3812;50.006;8.230;2022-08-21T00:04:10;5.40;;;2.40;;
7541;SDS011;3812;50.006;8.230;2022-08-21T00:06:37;6.43;;;2.50;;
7541;SDS011;3812;50.006;8.230;2022-08-21T00:09:06;4.33;;;2.90;;
7541;SDS011;3812;50.006;8.230;2022-08-21T00:11:35;5.60;;;2.90;;
7541;SDS011;3812;50.006;8.230;2022-08-21T00:14:04;5.30;;;2.77;;
7541;SDS011;3812;50.006;8.230;2022-08-21T00:16:34;5.47;;;2.87;;
7541;SDS011;3812;50.006;8.230;2022-08-21T00:19:01;4.60;;;2.70;;
7541;SDS011;3812;50.006;8.230;2022-08-21T00:21:28;4.60;;;3.00;;
7541;SDS011;3812;50.006;8.230;2022-08-21T00:23:55;5.87;;;2.77;;
7541;SDS011;3812;50.006;8.230;2022-08-21T00:26:23;5.50;;;2.60;;
7541;SDS011;3812;50.006;8.230;2022-08-21T00:28:50;4.23;;;2.50;;
7541;SDS011;3812;50.006;8.230;2022-08-21T00:31:17;4.77;;;2.63;;
7541;SDS011;3812;50.006;8.230;2022-08-21T00:33:44;5.63;;;2.80;;
7541;SDS011;3812;50.006;8.230;2022-08-21T00:36:11;6.73;;;3.00;;
7541;SDS011;3812;50.006;8.230;2022-08-21T00:38:39;4.33;;;2.80;;
7541;SDS011;3812;50.006;8.230;2022-08-21T00:41:07;5.40;;;2.70;;
7541;SDS011;3812;50.006;8.230;2022-08-21T00:43:37;5.10;;;2.60;;
7541;SDS011;3812;50.006;8.230;2022-08-21T00:46:05;4.37;;;2.60;;
7541;SDS011;3812;50.006;8.230;2022-08-21T00:48:32;5.73;;;3.00;;
7541;SDS011;3812;50.006;8.230;2022-08-21T00:51:02;5.13;;;2.47;;
7541;SDS011;3812;50.006;8.230;2022-08-21T00:53:33;7.83;;;3.27;;
7541;SDS011;3812;50.006;8.230;2022-08-21T00:56:02;4.27;;;2.40;;
7541;SDS011;3812;50.006;8.230;2022-08-21T00:58:30;6.20;;;2.77;;
7541;SDS011;3812;50.006;8.230;2022-08-21T01:01:03;4.03;;;2.50;;
7541;SDS011;3812;50.006;8.230;2022-08-21T01:03:31;4.33;;;2.77;;
7541;SDS011;3812;50.006;8.230;2022-08-21T01:06:00;6.03;;;2.70;;
7541;SDS011;3812;50.006;8.230;2022-08-21T01:08:29;3.80;;;2.50;;
7541;SDS011;3812;50.006;8.230;2022-08-21T01:10:57;5.07;;;2.50;;
7541;SDS011;3812;50.006;8.230;2022-08-21T01:13:26;4.53;;;2.50;;
7541;SDS011;3812;50.006;8.230;2022-08-21T01:15:56;3.83;;;2.67;;
7541;SDS011;3812;50.006;8.230;2022-08-21T01:18:27;2.33;;;2.03;;
7541;SDS011;3812;50.006;8.230;2022-08-21T01:21:04;7.23;;;2.90;;
7541;SDS011;3812;50.006;8.230;2022-08-21T01:23:35;6.10;;;2.70;;
7541;SDS011;3812;50.006;8.230;2022-08-21T01:26:03;4.53;;;2.57;;
7541;SDS011;3812;50.006;8.230;2022-08-21T01:28:31;4.20;;;2.67;;
7541;SDS011;3812;50.006;8.230;2022-08-21T01:31:03;6.40;;;2.87;;
7541;SDS011;3812;50.006;8.230;2022-08-21T01:33:32;6.57;;;2.43;;
7541;SDS011;3812;50.006;8.230;2022-08-21T01:35:59;4.97;;;2.70;;
7541;SDS011;3812;50.006;8.230;2022-08-21T01:38:28;6.67;;;3.10;;
7541;SDS011;3812;50.006;8.230;2022-08-21T01:40:55;3.90;;;2.77;;
7541;SDS011;3812;50.006;8.230;2022-08-21T01:43:22;5.80;;;2.60;;
7541;SDS011;3812;50.006;8.230;2022-08-21T01:45:49;4.20;;;2.67;;
7541;SDS011;3812;50.006;8.230;2022-08-21T01:48:16;5.37;;;2.70;;
7541;SDS011;3812;50.006;8.230;2022-08-21T01:50:43;6.40;;;3.07;;
7541;SDS011;3812;50.006;8.230;2022-08-21T01:53:10;4.43;;;2.77;;
7541;SDS011;3812;50.006;8.230;2022-08-21T01:55:38;3.80;;;2.90;;
7541;SDS011;3812;50.006;8.230;2022-08-21T01:58:05;6.63;;;2.90;;
7541;SDS011;3812;50.006;8.230;2022-08-21T02:00:32;5.10;;;2.40;;
7541;SDS011;3812;50.006;8.230;2022-08-21T02:02:59;7.07;;;2.97;;
7541;SDS011;3812;50.006;8.230;2022-08-21T02:05:25;5.23;;;2.83;;
7541;SDS011;3812;50.006;8.230;2022-08-21T02:07:53;6.03;;;3.10;;
7541;SDS011;3812;50.006;8.230;2022-08-21T02:10:22;5.23;;;2.83;;
7541;SDS011;3812;50.006;8.230;2022-08-21T02:12:56;5.07;;;2.77;;
7541;SDS011;3812;50.006;8.230;2022-08-21T02:15:25;5.53;;;2.90;;
7541;SDS011;3812;50.006;8.230;2022-08-21T02:17:53;8.17;;;3.00;;
7541;SDS011;3812;50.006;8.230;2022-08-21T02:20:24;4.47;;;2.67;;
7541;SDS011;3812;50.006;8.230;2022-08-21T02:22:52;5.40;;;2.87;;
7541;SDS011;3812;50.006;8.230;2022-08-21T02:25:21;4.73;;;3.00;;
7541;SDS011;3812;50.006;8.230;2022-08-21T02:27:49;8.00;;;3.23;;
7541;SDS011;3812;50.006;8.230;2022-08-21T02:30:19;5.73;;;2.87;;
7541;SDS011;3812;50.006;8.230;2022-08-21T02:32:47;6.13;;;2.70;;
7541;SDS011;3812;50.006;8.230;2022-08-21T02:35:14;5.70;;;2.90;;
7541;SDS011;3812;50.006;8.230;2022-08-21T02:37:45;7.70;;;3.10;;
7541;SDS011;3812;50.006;8.230;2022-08-21T02:40:15;3.97;;;3.03;;
7541;SDS011;3812;50.006;8.230;2022-08-21T02:42:43;5.00;;;3.17;;
7541;SDS011;3812;50.006;8.230;2022-08-21T02:45:11;6.37;;;3.10;;
7541;SDS011;3812;50.006;8.230;2022-08-21T02:47:42;5.07;;;2.87;;
7541;SDS011;3812;50.006;8.230;2022-08-21T02:50:13;6.93;;;3.63;;
7541;SDS011;3812;50.006;8.230;2022-08-21T02:52:44;6.13;;;3.00;;
7541;SDS011;3812;50.006;8.230;2022-08-21T02:55:11;5.23;;;3.10;;
7541;SDS011;3812;50.006;8.230;2022-08-21T02:57:38;3.07;;;2.73;;
7541;SDS011;3812;50.006;8.230;2022-08-21T03:00:06;5.40;;;2.73;;
7541;SDS011;3812;50.006;8.230;2022-08-21T03:02:35;10.00;;;3.03;;
7541;SDS011;3812;50.006;8.230;2022-08-21T03:05:04;5.23;;;3.00;;
7541;SDS011;3812;50.006;8.230;2022-08-21T03:07:32;3.93;;;3.10;;
7541;SDS011;3812;50.006;8.230;2022-08-21T03:09:59;4.23;;;2.70;;
7541;SDS011;3812;50.006;8.230;2022-08-21T03:12:27;6.40;;;2.90;;
7541;SDS011;3812;50.006;8.230;2022-08-21T03:14:54;6.13;;;3.03;;
7541;SDS011;3812;50.006;8.230;2022-08-21T03:17:21;3.73;;;2.70;;
7541;SDS011;3812;50.006;8.230;2022-08-21T03:19:48;5.33;;;3.30;;
7541;SDS011;3812;50.006;8.230;2022-08-21T03:22:16;3.47;;;2.80;;
7541;SDS011;3812;50.006;8.230;2022-08-21T03:24:43;5.43;;;2.80;;
7541;SDS011;3812;50.006;8.230;2022-08-21T03:27:10;6.67;;;3.10;;
7541;SDS011;3812;50.006;8.230;2022-08-21T03:29:38;6.27;;;3.30;;
7541;SDS011;3812;50.006;8.230;2022-08-21T03:32:05;6.47;;;2.90;;
7541;SDS011;3812;50.006;8.230;2022-08-21T03:34:34;8.10;;;3.10;;
7541;SDS011;3812;50.006;8.230;2022-08-21T03:37:01;4.23;;;3.40;;
7541;SDS011;3812;50.006;8.230;2022-08-21T03:39:30;5.20;;;2.67;;
7541;SDS011;3812;50.006;8.230;2022-08-21T03:41:57;5.83;;;3.00;;
7541;SDS011;3812;50.006;8.230;2022-08-21T03:44:25;5.10;;;3.03;;
7541;SDS011;3812;50.006;8.230;2022-08-21T03:46:55;4.23;;;2.50;;
7541;SDS011;3812;50.006;8.230;2022-08-21T03:49:22;4.13;;;3.20;;
7541;SDS011;3812;50.006;8.230;2022-08-21T03:51:50;6.07;;;3.13;;
7541;SDS011;3812;50.006;8.230;2022-08-21T03:54:17;6.37;;;3.30;;
7541;SDS011;3812;50.006;8.230;2022-08-21T03:56:45;4.80;;;3.40;;
7541;SDS011;3812;50.006;8.230;2022-08-21T03:59:12;6.10;;;3.07;;
7541;SDS011;3812;50.006;8.230;2022-08-21T04:01:39;4.67;;;2.90;;
7541;SDS011;3812;50.006;8.230;2022-08-21T04:04:16;6.00;;;2.73;;
7541;SDS011;3812;50.006;8.230;2022-08-21T04:06:43;5.20;;;3.23;;
7541;SDS011;3812;50.006;8.230;2022-08-21T04:09:10;5.40;;;2.97;;
7541;SDS011;3812;50.006;8.230;2022-08-21T04:11:37;6.93;;;3.13;;
7541;SDS011;3812;50.006;8.230;2022-08-21T04:14:05;3.67;;;2.90;;
7541;SDS011;3812;50.006;8.230;2022-08-21T04:16:32;6.60;;;3.43;;
7541;SDS011;3812;50.006;8.230;2022-08-21T04:18:59;7.07;;;3.40;;
7541;SDS011;3812;50.006;8.230;2022-08-21T04:21:26;5.23;;;3.10;;
7541;SDS011;3812;50.006;8.230;2022-08-21T04:23:53;8.47;;;3.57;;
7541;SDS011;3812;50.006;8.230;2022-08-21T04:26:21;7.33;;;3.07;;
7541;SDS011;3812;50.006;8.230;2022-08-21T04:28:48;5.67;;;3.30;;
7541;SDS011;3812;50.006;8.230;2022-08-21T04:31:16;5.07;;;3.50;;
7541;SDS011;3812;50.006;8.230;2022-08-21T04:33:43;4.67;;;3.20;;
7541;SDS011;3812;50.006;8.230;2022-08-21T04:36:11;5.43;;;3.17;;
7541;SDS011;3812;50.006;8.230;2022-08-21T04:38:37;6.37;;;3.47;;
7541;SDS011;3812;50.006;8.230;2022-08-21T04:41:04;5.33;;;3.30;;
7541;SDS011;3812;50.006;8.230;2022-08-21T04:43:31;5.03;;;3.07;;
7541;SDS011;3812;50.006;8.230;2022-08-21T04:45:59;8.03;;;3.57;;
7541;SDS011;3812;50.006;8.230;2022-08-21T04:48:27;6.17;;;3.67;;
7541;SDS011;3812;50.006;8.230;2022-08-21T04:50:55;4.23;;;3.33;;
7541;SDS011;3812;50.006;8.230;2022-08-21T04:53:24;6.00;;;3.60;;
7541;SDS011;3812;50.006;8.230;2022-08-21T04:55:58;5.07;;;3.60;;
7541;SDS011;3812;50.006;8.230;2022-08-21T04:58:30;4.77;;;3.63;;
7541;SDS011;3812;50.006;8.230;2022-08-21T05:00:58;5.40;;;3.47;;
7541;SDS011;3812;50.006;8.230;2022-08-21T05:03:29;6.43;;;3.50;;
7541;SDS011;3812;50.006;8.230;2022-08-21T05:05:57;5.73;;;3.43;;
7541;SDS011;3812;50.006;8.230;2022-08-21T05:08:24;7.40;;;3.90;;
7541;SDS011;3812;50.006;8.230;2022-08-21T05:10:53;7.13;;;3.30;;
7541;SDS011;3812;50.006;8.230;2022-08-21T05:13:20;6.03;;;3.70;;
7541;SDS011;3812;50.006;8.230;2022-08-21T05:15:47;4.97;;;3.33;;
7541;SDS011;3812;50.006;8.230;2022-08-21T05:18:14;5.87;;;3.80;;
7541;SDS011;3812;50.006;8.230;2022-08-21T05:20:42;6.87;;;3.33;;
7541;SDS011;3812;50.006;8.230;2022-08-21T05:23:10;5.77;;;3.30;;
7541;SDS011;3812;50.006;8.230;2022-08-21T05:25:38;6.13;;;3.10;;
7541;SDS011;3812;50.006;8.230;2022-08-21T05:28:06;6.70;;;3.63;;
7541;SDS011;3812;50.006;8.230;2022-08-21T05:30:33;5.70;;;2.97;;
7541;SDS011;3812;50.006;8.230;2022-08-21T05:33:01;5.13;;;3.10;;
7541;SDS011;3812;50.006;8.230;2022-08-21T05:35:29;7.20;;;3.20;;
7541;SDS011;3812;50.006;8.230;2022-08-21T05:37:58;5.87;;;3.03;;
7541;SDS011;3812;50.006;8.230;2022-08-21T05:40:26;6.20;;;2.83;;
7541;SDS011;3812;50.006;8.230;2022-08-21T05:42:54;4.73;;;2.63;;
7541;SDS011;3812;50.006;8.230;2022-08-21T05:45:22;6.20;;;3.10;;
7541;SDS011;3812;50.006;8.230;2022-08-21T05:47:50;4.23;;;2.80;;
7541;SDS011;3812;50.006;8.230;2022-08-21T05:50:17;4.67;;;2.70;;
7541;SDS011;3812;50.006;8.230;2022-08-21T05:52:44;6.10;;;3.00;;
7541;SDS011;3812;50.006;8.230;2022-08-21T05:55:12;8.57;;;3.10;;
7541;SDS011;3812;50.006;8.230;2022-08-21T05:57:39;4.60;;;2.67;;
7541;SDS011;3812;50.006;8.230;2022-08-21T06:00:07;5.30;;;3.00;;
7541;SDS011;3812;50.006;8.230;2022-08-21T06:02:38;8.07;;;3.37;;
7541;SDS011;3812;50.006;8.230;2022-08-21T06:05:05;5.43;;;2.70;;
7541;SDS011;3812;50.006;8.230;2022-08-21T06:07:33;5.50;;;2.53;;
7541;SDS011;3812;50.006;8.230;2022-08-21T06:10:00;5.57;;;2.70;;
7541;SDS011;3812;50.006;8.230;2022-08-21T06:12:28;5.50;;;2.90;;
7541;SDS011;3812;50.006;8.230;2022-08-21T06:14:55;5.07;;;3.00;;
7541;SDS011;3812;50.006;8.230;2022-08-21T06:17:22;6.40;;;2.93;;
7541;SDS011;3812;50.006;8.230;2022-08-21T06:19:50;3.90;;;2.40;;
7541;SDS011;3812;50.006;8.230;2022-08-21T06:22:17;4.07;;;2.60;;
7541;SDS011;3812;50.006;8.230;2022-08-21T06:24:44;8.97;;;3.23;;
7541;SDS011;3812;50.006;8.230;2022-08-21T06:27:11;7.23;;;2.60;;
7541;SDS011;3812;50.006;8.230;2022-08-21T06:29:39;5.80;;;3.20;;
7541;SDS011;3812;50.006;8.230;2022-08-21T06:32:10;4.50;;;2.93;;
7541;SDS011;3812;50.006;8.230;2022-08-21T06:34:37;7.57;;;2.90;;
7541;SDS011;3812;50.006;8.230;2022-08-21T06:37:06;8.40;;;3.20;;
7541;SDS011;3812;50.006;8.230;2022-08-21T06:39:34;5.00;;;3.27;;
7541;SDS011;3812;50.006;8.230;2022-08-21T06:42:02;6.03;;;2.80;;
7541;SDS011;3812;50.006;8.230;2022-08-21T06:44:29;5.20;;;3.17;;
7541;SDS011;3812;50.006;8.230;2022-08-21T06:46:58;7.20;;;3.13;;
7541;SDS011;3812;50.006;8.230;2022-08-21T06:49:25;5.40;;;3.20;;
7541;SDS011;3812;50.006;8.230;2022-08-21T06:51:52;5.57;;;2.90;;
7541;SDS011;3812;50.006;8.230;2022-08-21T06:54:19;7.30;;;3.10;;
7541;SDS011;3812;50.006;8.230;2022-08-21T06:56:45;9.30;;;3.60;;
7541;SDS011;3812;50.006;8.230;2022-08-21T06:59:12;5.87;;;3.20;;
7541;SDS011;3812;50.006;8.230;2022-08-21T07:01:39;7.97;;;3.30;;
7541;SDS011;3812;50.006;8.230;2022-08-21T07:04:08;5.80;;;3.40;;
7541;SDS011;3812;50.006;8.230;2022-08-21T07:06:35;5.40;;;3.10;;
7541;SDS011;3812;50.006;8.230;2022-08-21T07:09:02;4.33;;;3.00;;
7541;SDS011;3812;50.006;8.230;2022-08-21T07:11:29;7.70;;;3.27;;
7541;SDS011;3812;50.006;8.230;2022-08-21T07:13:56;4.87;;;3.30;;
7541;SDS011;3812;50.006;8.230;2022-08-21T07:16:24;6.07;;;3.47;;
7541;SDS011;3812;50.006;8.230;2022-08-21T07:18:51;5.80;;;3.33;;
7541;SDS011;3812;50.006;8.230;2022-08-21T07:21:19;5.60;;;2.83;;
7541;SDS011;3812;50.006;8.230;2022-08-21T07:23:47;6.67;;;2.87;;
7541;SDS011;3812;50.006;8.230;2022-08-21T07:26:17;4.90;;;3.23;;
7541;SDS011;3812;50.006;8.230;2022-08-21T07:28:46;5.33;;;2.90;;
7541;SDS011;3812;50.006;8.230;2022-08-21T07:31:14;6.17;;;3.10;;
7541;SDS011;3812;50.006;8.230;2022-08-21T07:33:44;5.13;;;3.00;;
7541;SDS011;3812;50.006;8.230;2022-08-21T07:36:11;5.53;;;2.93;;
7541;SDS011;3812;50.006;8.230;2022-08-21T07:38:40;4.40;;;3.20;;
7541;SDS011;3812;50.006;8.230;2022-08-21T07:41:10;8.43;;;3.27;;
7541;SDS011;3812;50.006;8.230;2022-08-21T07:43:41;4.90;;;3.00;;
7541;SDS011;3812;50.006;8.230;2022-08-21T07:46:08;7.13;;;3.90;;
7541;SDS011;3812;50.006;8.230;2022-08-21T07:48:35;9.33;;;4.53;;
7541;SDS011;3812;50.006;8.230;2022-08-21T07:51:05;8.57;;;4.20;;
7541;SDS011;3812;50.006;8.230;2022-08-21T07:53:34;5.43;;;3.57;;
7541;SDS011;3812;50.006;8.230;2022-08-21T07:56:02;6.43;;;3.60;;
7541;SDS011;3812;50.006;8.230;2022-08-21T07:58:30;4.60;;;3.20;;
7541;SDS011;3812;50.006;8.230;2022-08-21T08:00:57;6.97;;;3.90;;
7541;SDS011;3812;50.006;8.230;2022-08-21T08:03:25;5.80;;;3.73;;
7541;SDS011;3812;50.006;8.230;2022-08-21T08:05:52;5.47;;;3.53;;
7541;SDS011;3812;50.006;8.230;2022-08-21T08:08:19;9.20;;;3.97;;
7541;SDS011;3812;50.006;8.230;2022-08-21T08:10:46;7.70;;;4.23;;
7541;SDS011;3812;50.006;8.230;2022-08-21T08:13:16;6.70;;;4.20;;
7541;SDS011;3812;50.006;8.230;2022-08-21T08:15:43;5.47;;;3.63;;
7541;SDS011;3812;50.006;8.230;2022-08-21T08:18:10;5.27;;;3.83;;
7541;SDS011;3812;50.006;8.230;2022-08-21T08:20:37;7.97;;;4.57;;
7541;SDS011;3812;50.006;8.230;2022-08-21T08:23:03;5.70;;;4.10;;
7541;SDS011;3812;50.006;8.230;2022-08-21T08:25:31;9.20;;;5.03;;
7541;SDS011;3812;50.006;8.230;2022-08-21T08:27:57;7.83;;;4.40;;
7541;SDS011;3812;50.006;8.230;2022-08-21T08:30:26;9.63;;;4.07;;
7541;SDS011;3812;50.006;8.230;2022-08-21T08:32:53;7.70;;;4.60;;
7541;SDS011;3812;50.006;8.230;2022-08-21T08:35:20;7.00;;;3.60;;
7541;SDS011;3812;50.006;8.230;2022-08-21T08:37:46;7.77;;;3.80;;
7541;SDS011;3812;50.006;8.230;2022-08-21T08:40:15;5.00;;;3.73;;
7541;SDS011;3812;50.006;8.230;2022-08-21T08:42:48;6.03;;;3.30;;
7541;SDS011;3812;50.006;8.230;2022-08-21T08:45:17;5.67;;;3.53;;
7541;SDS011;3812;50.006;8.230;2022-08-21T08:47:49;5.53;;;3.00;;
7541;SDS011;3812;50.006;8.230;2022-08-21T08:50:24;9.50;;;2.67;;
7541;SDS011;3812;50.006;8.230;2022-08-21T08:52:54;7.17;;;2.60;;
7541;SDS011;3812;50.006;8.230;2022-08-21T08:55:28;4.87;;;2.73;;
7541;SDS011;3812;50.006;8.230;2022-08-21T08:57:59;8.90;;;3.37;;
7541;SDS011;3812;50.006;8.230;2022-08-21T09:00:28;5.20;;;2.70;;
7541;SDS011;3812;50.006;8.230;2022-08-21T09:02:57;8.17;;;2.70;;
7541;SDS011;3812;50.006;8.230;2022-08-21T09:05:28;7.60;;;3.00;;
7541;SDS011;3812;50.006;8.230;2022-08-21T09:08:12;6.07;;;3.43;;
7541;SDS011;3812;50.006;8.230;2022-08-21T09:10:54;8.47;;;3.23;;
7541;SDS011;3812;50.006;8.230;2022-08-21T09:13:30;9.10;;;3.37;;
7541;SDS011;3812;50.006;8.230;2022-08-21T09:16:09;5.03;;;2.80;;
7541;SDS011;3812;50.006;8.230;2022-08-21T09:18:43;8.23;;;3.37;;
7541;SDS011;3812;50.006;8.230;2022-08-21T09:21:23;7.63;;;3.60;;
7541;SDS011;3812;50.006;8.230;2022-08-21T09:23:58;5.97;;;2.80;;
7541;SDS011;3812;50.006;8.230;2022-08-21T09:26:30;5.43;;;3.20;;
7541;SDS011;3812;50.006;8.230;2022-08-21T09:29:11;7.57;;;2.90;;
7541;SDS011;3812;50.006;8.230;2022-08-21T09:31:38;6.70;;;3.20;;
7541;SDS011;3812;50.006;8.230;2022-08-21T09:34:07;8.93;;;3.57;;
7541;SDS011;3812;50.006;8.230;2022-08-21T09:36:40;6.80;;;2.67;;
7541;SDS011;3812;50.006;8.230;2022-08-21T09:39:10;5.90;;;2.80;;
7541;SDS011;3812;50.006;8.230;2022-08-21T09:41:38;4.77;;;2.53;;
7541;SDS011;3812;50.006;8.230;2022-08-21T09:44:06;6.57;;;2.60;;
7541;SDS011;3812;50.006;8.230;2022-08-21T09:46:34;4.23;;;2.50;;
7541;SDS011;3812;50.006;8.230;2022-08-21T09:49:03;7.80;;;2.80;;
7541;SDS011;3812;50.006;8.230;2022-08-21T09:51:32;6.17;;;2.47;;
7541;SDS011;3812;50.006;8.230;2022-08-21T09:54:10;5.93;;;2.70;;
7541;SDS011;3812;50.006;8.230;2022-08-21T09:56:51;5.17;;;2.40;;
7541;SDS011;3812;50.006;8.230;2022-08-21T09:59:38;5.27;;;2.57;;
7541;SDS011;3812;50.006;8.230;2022-08-21T10:02:20;4.87;;;2.27;;
7541;SDS011;3812;50.006;8.230;2022-08-21T10:04:50;6.40;;;2.40;;
7541;SDS011;3812;50.006;8.230;2022-08-21T10:07:21;4.70;;;2.63;;
7541;SDS011;3812;50.006;8.230;2022-08-21T10:09:57;5.10;;;2.90;;
7541;SDS011;3812;50.006;8.230;2022-08-21T10:12:28;5.80;;;2.77;;
7541;SDS011;3812;50.006;8.230;2022-08-21T10:15:01;8.27;;;3.20;;
7541;SDS011;3812;50.006;8.230;2022-08-21T10:17:35;5.33;;;2.40;;
7541;SDS011;3812;50.006;8.230;2022-08-21T10:20:11;4.70;;;2.53;;
7541;SDS011;3812;50.006;8.230;2022-08-21T10:22:46;4.73;;;2.53;;
7541;SDS011;3812;50.006;8.230;2022-08-21T10:25:21;4.10;;;2.23;;
7541;SDS011;3812;50.006;8.230;2022-08-21T10:27:55;5.70;;;2.50;;
7541;SDS011;3812;50.006;8.230;2022-08-21T10:30:30;5.37;;;2.80;;
7541;SDS011;3812;50.006;8.230;2022-08-21T10:33:09;5.33;;;2.17;;
7541;SDS011;3812;50.006;8.230;2022-08-21T10:35:51;6.87;;;2.53;;
7541;SDS011;3812;50.006;8.230;2022-08-21T10:38:38;6.27;;;2.50;;
7541;SDS011;3812;50.006;8.230;2022-08-21T10:41:21;5.53;;;2.43;;
7541;SDS011;3812;50.006;8.230;2022-08-21T10:43:59;3.77;;;2.13;;
7541;SDS011;3812;50.006;8.230;2022-08-21T10:46:37;3.70;;;2.33;;
7541;SDS011;3812;50.006;8.230;2022-08-21T10:49:17;5.13;;;2.73;;
7541;SDS011;3812;50.006;8.230;2022-08-21T10:51:54;4.10;;;2.00;;
7541;SDS011;3812;50.006;8.230;2022-08-21T10:54:33;6.30;;;2.37;;
7541;SDS011;3812;50.006;8.230;2022-08-21T10:57:09;6.87;;;2.47;;
7541;SDS011;3812;50.006;8.230;2022-08-21T10:59:44;4.50;;;2.20;;
7541;SDS011;3812;50.006;8.230;2022-08-21T11:02:17;4.93;;;2.10;;
7541;SDS011;3812;50.006;8.230;2022-08-21T11:04:49;3.30;;;2.07;;
7541;SDS011;3812;50.006;8.230;2022-08-21T11:07:21;5.20;;;2.20;;
7541;SDS011;3812;50.006;8.230;2022-08-21T11:09:55;4.30;;;1.97;;
7541;SDS011;3812;50.006;8.230;2022-08-21T11:12:28;5.07;;;2.23;;
7541;SDS011;3812;50.006;8.230;2022-08-21T11:15:00;4.13;;;1.93;;
7541;SDS011;3812;50.006;8.230;2022-08-21T11:17:34;3.13;;;1.77;;
7541;SDS011;3812;50.006;8.230;2022-08-21T11:20:08;4.03;;;2.03;;
7541;SDS011;3812;50.006;8.230;2022-08-21T11:22:40;2.53;;;1.90;;
7541;SDS011;3812;50.006;8.230;2022-08-21T11:25:17;4.73;;;2.00;;
7541;SDS011;3812;50.006;8.230;2022-08-21T11:27:49;3.47;;;1.90;;
7541;SDS011;3812;50.006;8.230;2022-08-21T11:30:20;5.73;;;2.10;;
7541;SDS011;3812;50.006;8.230;2022-08-21T11:35:42;3.47;;;2.10;;
7541;SDS011;3812;50.006;8.230;2022-08-21T11:38:22;5.00;;;2.20;;
7541;SDS011;3812;50.006;8.230;2022-08-21T11:40:58;3.63;;;2.17;;
7541;SDS011;3812;50.006;8.230;2022-08-21T11:43:36;6.60;;;2.10;;
7541;SDS011;3812;50.006;8.230;2022-08-21T11:46:14;4.17;;;2.10;;
7541;SDS011;3812;50.006;8.230;2022-08-21T11:48:53;4.25;;;2.10;;
7541;SDS011;3812;50.006;8.230;2022-08-21T11:51:30;4.55;;;2.13;;
7541;SDS011;3812;50.006;8.230;2022-08-21T11:54:01;3.20;;;1.90;;
7541;SDS011;3812;50.006;8.230;2022-08-21T11:56:36;3.38;;;1.92;;
7541;SDS011;3812;50.006;8.230;2022-08-21T11:59:09;2.80;;;1.92;;
7541;SDS011;3812;50.006;8.230;2022-08-21T12:01:45;4.45;;;1.73;;
7541;SDS011;3812;50.006;8.230;2022-08-21T12:04:16;4.90;;;2.30;;
7541;SDS011;3812;50.006;8.230;2022-08-21T12:06:49;6.50;;;2.20;;
7541;SDS011;3812;50.006;8.230;2022-08-21T12:09:30;3.28;;;1.60;;
7541;SDS011;3812;50.006;8.230;2022-08-21T12:12:03;4.25;;;2.03;;
7541;SDS011;3812;50.006;8.230;2022-08-21T12:14:36;4.70;;;2.35;;
7541;SDS011;3812;50.006;8.230;2022-08-21T12:17:05;4.35;;;2.05;;
7541;SDS011;3812;50.006;8.230;2022-08-21T12:19:33;3.63;;;1.77;;
7541;SDS011;3812;50.006;8.230;2022-08-21T12:22:08;4.78;;;2.00;;
7541;SDS011;3812;50.006;8.230;2022-08-21T12:24:37;4.22;;;2.33;;
7541;SDS011;3812;50.006;8.230;2022-08-21T12:27:19;4.93;;;1.70;;
7541;SDS011;3812;50.006;8.230;2022-08-21T12:29:52;3.50;;;1.90;;
7541;SDS011;3812;50.006;8.230;2022-08-21T12:32:23;3.17;;;2.00;;
7541;SDS011;3812;50.006;8.230;2022-08-21T12:34:53;6.57;;;2.40;;
7541;SDS011;3812;50.006;8.230;2022-08-21T12:37:28;3.10;;;1.92;;
7541;SDS011;3812;50.006;8.230;2022-08-21T12:40:05;4.35;;;1.92;;
7541;SDS011;3812;50.006;8.230;2022-08-21T12:42:43;5.15;;;1.83;;
7541;SDS011;3812;50.006;8.230;2022-08-21T12:45:17;4.65;;;2.05;;
7541;SDS011;3812;50.006;8.230;2022-08-21T12:47:47;4.78;;;1.92;;
7541;SDS011;3812;50.006;8.230;2022-08-21T12:50:19;3.28;;;1.58;;
7541;SDS011;3812;50.006;8.230;2022-08-21T12:52:53;3.35;;;1.70;;
7541;SDS011;3812;50.006;8.230;2022-08-21T12:55:28;6.03;;;1.75;;
7541;SDS011;3812;50.006;8.230;2022-08-21T12:57:59;3.90;;;2.00;;
7541;SDS011;3812;50.006;8.230;2022-08-21T13:00:27;3.47;;;1.88;;
7541;SDS011;3812;50.006;8.230;2022-08-21T13:02:55;4.90;;;1.70;;
7541;SDS011;3812;50.006;8.230;2022-08-21T13:05:27;3.28;;;1.60;;
7541;SDS011;3812;50.006;8.230;2022-08-21T13:07:57;3.13;;;2.10;;
7541;SDS011;3812;50.006;8.230;2022-08-21T13:10:26;2.95;;;1.95;;
7541;SDS011;3812;50.006;8.230;2022-08-21T13:12:55;2.88;;;1.85;;
7541;SDS011;3812;50.006;8.230;2022-08-21T13:15:26;5.78;;;2.10;;
7541;SDS011;3812;50.006;8.230;2022-08-21T13:17:56;5.13;;;2.05;;
7541;SDS011;3812;50.006;8.230;2022-08-21T13:20:28;4.18;;;1.92;;
7541;SDS011;3812;50.006;8.230;2022-08-21T13:22:56;3.45;;;2.03;;
7541;SDS011;3812;50.006;8.230;2022-08-21T13:25:25;3.72;;;2.15;;
7541;SDS011;3812;50.006;8.230;2022-08-21T13:27:57;5.85;;;2.10;;
7541;SDS011;3812;50.006;8.230;2022-08-21T13:30:27;5.43;;;1.65;;
7541;SDS011;3812;50.006;8.230;2022-08-21T13:32:58;3.13;;;1.80;;
7541;SDS011;3812;50.006;8.230;2022-08-21T13:35:27;3.25;;;1.48;;
7541;SDS011;3812;50.006;8.230;2022-08-21T13:37:56;3.63;;;1.58;;
7541;SDS011;3812;50.006;8.230;2022-08-21T13:40:26;5.18;;;1.80;;
7541;SDS011;3812;50.006;8.230;2022-08-21T13:42:55;4.45;;;1.88;;
7541;SDS011;3812;50.006;8.230;2022-08-21T13:45:24;2.63;;;2.00;;
7541;SDS011;3812;50.006;8.230;2022-08-21T13:47:55;4.10;;;1.83;;
7541;SDS011;3812;50.006;8.230;2022-08-21T13:50:23;3.67;;;1.98;;
7541;SDS011;3812;50.006;8.230;2022-08-21T13:52:56;3.50;;;1.50;;
7541;SDS011;3812;50.006;8.230;2022-08-21T13:55:25;3.53;;;1.90;;
7541;SDS011;3812;50.006;8.230;2022-08-21T13:58:03;3.47;;;1.70;;
7541;SDS011;3812;50.006;8.230;2022-08-21T14:00:31;3.53;;;1.70;;
7541;SDS011;3812;50.006;8.230;2022-08-21T14:03:03;3.42;;;1.90;;
7541;SDS011;3812;50.006;8.230;2022-08-21T14:05:35;3.42;;;1.65;;
7541;SDS011;3812;50.006;8.230;2022-08-21T14:08:05;3.67;;;1.73;;
7541;SDS011;3812;50.006;8.230;2022-08-21T14:10:35;2.28;;;1.60;;
7541;SDS011;3812;50.006;8.230;2022-08-21T14:13:07;3.45;;;1.92;;
7541;SDS011;3812;50.006;8.230;2022-08-21T14:15:47;2.40;;;1.80;;
7541;SDS011;3812;50.006;8.230;2022-08-21T14:18:22;3.10;;;1.90;;
7541;SDS011;3812;50.006;8.230;2022-08-21T14:20:51;2.90;;;1.40;;
7541;SDS011;3812;50.006;8.230;2022-08-21T14:23:29;3.90;;;1.70;;
7541;SDS011;3812;50.006;8.230;2022-08-21T14:25:58;2.95;;;1.70;;
7541;SDS011;3812;50.006;8.230;2022-08-21T14:28:28;2.08;;;1.58;;
7541;SDS011;3812;50.006;8.230;2022-08-21T14:30:57;5.50;;;1.50;;
7541;SDS011;3812;50.006;8.230;2022-08-21T14:33:37;5.00;;;1.80;;
7541;SDS011;3812;50.006;8.230;2022-08-21T14:36:04;3.00;;;1.58;;
7541;SDS011;3812;50.006;8.230;2022-08-21T14:38:32;2.47;;;1.60;;
7541;SDS011;3812;50.006;8.230;2022-08-21T14:41:03;4.00;;;1.73;;
7541;SDS011;3812;50.006;8.230;2022-08-21T14:43:34;4.30;;;1.80;;
7541;SDS011;3812;50.006;8.230;2022-08-21T14:46:02;2.78;;;1.42;;
7541;SDS011;3812;50.006;8.230;2022-08-21T14:48:29;4.60;;;2.00;;
7541;SDS011;3812;50.006;8.230;2022-08-21T14:50:57;3.85;;;1.60;;
7541;SDS011;3812;50.006;8.230;2022-08-21T14:53:24;3.10;;;1.48;;
7541;SDS011;3812;50.006;8.230;2022-08-21T14:55:51;1.83;;;1.40;;
7541;SDS011;3812;50.006;8.230;2022-08-21T14:58:33;3.13;;;1.52;;
7541;SDS011;3812;50.006;8.230;2022-08-21T15:01:02;3.10;;;1.73;;
7541;SDS011;3812;50.006;8.230;2022-08-21T15:03:32;1.67;;;1.40;;
7541;SDS011;3812;50.006;8.230;2022-08-21T15:06:01;2.08;;;1.42;;
7541;SDS011;3812;50.006;8.230;2022-08-21T15:08:29;2.95;;;1.77;;
7541;SDS011;3812;50.006;8.230;2022-08-21T15:10:57;4.28;;;1.63;;
7541;SDS011;3812;50.006;8.230;2022-08-21T15:13:25;3.50;;;1.70;;
7541;SDS011;3812;50.006;8.230;2022-08-21T15:15:52;4.22;;;1.90;;
7541;SDS011;3812;50.006;8.230;2022-08-21T15:18:21;5.22;;;1.73;;
7541;SDS011;3812;50.006;8.230;2022-08-21T15:20:49;2.92;;;1.70;;
7541;SDS011;3812;50.006;8.230;2022-08-21T15:23:18;2.30;;;1.40;;
7541;SDS011;3812;50.006;8.230;2022-08-21T15:25:46;3.28;;;1.40;;
7541;SDS011;3812;50.006;8.230;2022-08-21T15:28:15;2.45;;;1.60;;
7541;SDS011;3812;50.006;8.230;2022-08-21T15:30:44;1.92;;;1.45;;
7541;SDS011;3812;50.006;8.230;2022-08-21T15:33:11;2.88;;;1.55;;
7541;SDS011;3812;50.006;8.230;2022-08-21T15:35:38;3.28;;;1.73;;